createdAt,value
2022-10-14T00:00:17.299Z,66.17
2022-10-14T00:01:40.196Z,66.23
2022-10-14T00:02:48.383Z,66.25
2022-10-14T00:03:51.319Z,66.29
2022-10-14T00:04:55.910Z,66.32
2022-10-14T00:05:58.852Z,66.32
2022-10-14T00:07:01.691Z,66.30
2022-10-14T00:08:04.566Z,66.34
2022-10-14T00:09:08.807Z,66.35
2022-10-14T00:10:11.884Z,66.37
2022-10-14T00:11:16.106Z,66.36
2022-10-14T00:12:19.022Z,66.39
2022-10-14T00:13:21.907Z,66.42
2022-10-14T00:14:24.787Z,66.41
2022-10-14T00:15:28.864Z,66.41
2022-10-14T00:16:33.399Z,66.41
2022-10-14T00:17:36.595Z,66.41
2022-10-14T00:18:39.460Z,66.41
2022-10-14T00:19:42.494Z,66.43
2022-10-14T00:20:53.851Z,66.40
2022-10-14T00:21:56.795Z,66.38
2022-10-14T00:22:59.717Z,66.40
2022-10-14T00:24:02.672Z,66.38
2022-10-14T00:25:05.758Z,66.38
2022-10-14T00:26:31.017Z,66.41
2022-10-14T00:27:33.871Z,66.43
2022-10-14T00:28:38.007Z,66.42
2022-10-14T00:29:41.016Z,66.39
2022-10-14T00:30:52.793Z,66.45
2022-10-14T00:31:55.830Z,66.41
2022-10-14T00:32:58.863Z,66.38
2022-10-14T00:34:01.876Z,66.52
2022-10-14T00:35:05.242Z,66.60
2022-10-14T00:36:09.057Z,66.70
2022-10-14T00:37:12.226Z,66.78
2022-10-14T00:38:15.322Z,66.85
2022-10-14T00:39:18.396Z,66.91
2022-10-14T00:40:21.452Z,66.94
2022-10-14T00:41:29.598Z,67.02
2022-10-14T00:42:33.966Z,67.07
2022-10-14T00:43:55.330Z,67.13
2022-10-14T00:44:59.913Z,67.14
2022-10-14T00:46:02.784Z,67.19
2022-10-14T00:47:05.847Z,67.22
2022-10-14T00:48:09.573Z,67.25
2022-10-14T00:49:15.514Z,67.28
2022-10-14T00:50:20.115Z,67.32
2022-10-14T00:51:23.076Z,67.33
2022-10-14T00:52:27.125Z,67.36
2022-10-14T00:53:30.152Z,67.39
2022-10-14T00:54:39.311Z,67.32
2022-10-14T00:55:42.731Z,67.30
2022-10-14T00:56:48.118Z,67.33
2022-10-14T00:57:51.029Z,67.37
2022-10-14T00:58:55.017Z,67.40
2022-10-14T01:00:04.603Z,67.38
2022-10-14T01:01:08.275Z,67.34
2022-10-14T01:02:11.279Z,67.29
2022-10-14T01:03:21.355Z,67.28
2022-10-14T01:04:25.277Z,67.29
2022-10-14T01:05:31.746Z,67.37
2022-10-14T01:06:53.078Z,66.93
2022-10-14T01:08:11.046Z,66.82
2022-10-14T01:09:20.143Z,65.97
2022-10-14T01:10:28.941Z,66.87
2022-10-14T01:11:32.071Z,67.07
2022-10-14T01:12:37.702Z,67.19
2022-10-14T01:13:42.388Z,67.22
2022-10-14T01:14:45.331Z,67.24
2022-10-14T01:15:57.272Z,67.19
2022-10-14T01:17:13.538Z,67.22
2022-10-14T01:18:16.442Z,67.28
2022-10-14T01:19:37.270Z,67.31
2022-10-14T01:20:58.234Z,67.39
2022-10-14T01:22:08.181Z,67.46
2022-10-14T01:23:17.247Z,67.45
2022-10-14T01:24:20.144Z,67.54
2022-10-14T01:25:33.619Z,67.64
2022-10-14T01:26:36.819Z,67.66
2022-10-14T01:27:39.835Z,67.75
2022-10-14T01:29:01.457Z,67.88
2022-10-14T01:30:16.694Z,66.82
2022-10-14T01:31:22.467Z,66.39
2022-10-14T01:32:27.952Z,67.40
2022-10-14T01:33:35.776Z,67.83
2022-10-14T01:34:42.321Z,67.94
2022-10-14T01:35:45.234Z,68.03
2022-10-14T01:36:51.518Z,68.00
2022-10-14T01:38:07.219Z,68.02
2022-10-14T01:39:13.445Z,68.12
2022-10-14T01:40:26.660Z,68.22
2022-10-14T01:41:44.759Z,68.40
2022-10-14T01:42:47.941Z,68.41
2022-10-14T01:43:52.181Z,68.42
2022-10-14T01:44:59.087Z,68.38
2022-10-14T01:46:03.540Z,68.55
2022-10-14T01:47:06.805Z,66.70
2022-10-14T01:48:11.408Z,67.77
2022-10-14T01:49:16.203Z,68.13
2022-10-14T01:50:21.383Z,68.26
2022-10-14T01:51:28.627Z,68.30
2022-10-14T01:52:33.931Z,68.64
2022-10-14T01:53:40.716Z,68.84
2022-10-14T01:54:47.012Z,68.99
2022-10-14T01:55:52.196Z,68.67
2022-10-14T01:56:55.730Z,69.04
2022-10-14T01:57:59.238Z,69.18
2022-10-14T01:59:03.237Z,69.25
2022-10-14T02:00:07.363Z,69.27
2022-10-14T02:01:17.389Z,69.39
2022-10-14T02:02:21.731Z,69.53
2022-10-14T02:03:24.844Z,69.49
2022-10-14T02:04:27.724Z,69.55
2022-10-14T02:05:30.623Z,69.61
2022-10-14T02:06:35.444Z,69.68
2022-10-14T02:07:42.828Z,69.76
2022-10-14T02:08:48.607Z,69.78
2022-10-14T02:09:57.560Z,69.86
2022-10-14T02:11:15.714Z,69.71
2022-10-14T02:12:29.286Z,69.90
2022-10-14T02:13:50.556Z,70.09
2022-10-14T02:15:11.767Z,70.14
2022-10-14T02:16:34.411Z,70.31
2022-10-14T02:17:40.532Z,70.46
2022-10-14T02:18:54.336Z,70.51
2022-10-14T02:20:14.174Z,70.43
2022-10-14T02:21:24.659Z,70.59
2022-10-14T02:22:27.560Z,70.76
2022-10-14T02:23:33.363Z,70.85
2022-10-14T02:24:39.547Z,70.76
2022-10-14T02:25:44.838Z,70.94
2022-10-14T02:26:50.329Z,71.08
2022-10-14T02:27:54.498Z,71.12
2022-10-14T02:28:58.334Z,71.07
2022-10-14T02:30:01.854Z,70.65
2022-10-14T02:32:47.289Z,71.22
2022-10-14T02:33:53.203Z,71.20
2022-10-14T02:34:58.080Z,71.41
2022-10-14T02:36:02.254Z,71.47
2022-10-14T02:37:06.105Z,71.52
2022-10-14T02:38:09.453Z,71.53
2022-10-14T02:39:15.718Z,71.59
2022-10-14T02:40:23.743Z,71.67
2022-10-14T02:41:30.702Z,71.72
2022-10-14T02:42:33.763Z,71.75
2022-10-14T02:43:39.778Z,71.65
2022-10-14T02:44:55.874Z,71.66
2022-10-14T02:46:00.343Z,71.77
2022-10-14T02:47:03.788Z,71.79
2022-10-14T02:48:06.764Z,71.82
2022-10-14T02:49:09.665Z,71.88
2022-10-14T02:50:12.940Z,71.88
2022-10-14T02:51:16.373Z,71.88
2022-10-14T02:52:20.913Z,71.88
2022-10-14T02:53:24.386Z,71.92
2022-10-14T02:54:27.386Z,71.94
2022-10-14T02:55:30.388Z,71.81
2022-10-14T02:56:33.347Z,71.53
2022-10-14T02:57:36.589Z,71.79
2022-10-14T02:58:39.553Z,71.85
2022-10-14T02:59:42.499Z,71.92
2022-10-14T03:00:45.482Z,71.97
2022-10-14T03:01:48.497Z,71.96
2022-10-14T03:02:51.462Z,71.93
2022-10-14T03:03:54.638Z,72.07
2022-10-14T03:04:59.165Z,72.17
2022-10-14T03:06:02.127Z,72.14
2022-10-14T03:07:05.406Z,72.09
2022-10-14T03:08:11.064Z,72.07
2022-10-14T03:09:14.579Z,72.16
2022-10-14T03:10:18.026Z,72.14
2022-10-14T03:11:20.979Z,72.11
2022-10-14T03:12:24.404Z,72.07
2022-10-14T03:13:28.797Z,71.99
2022-10-14T03:14:31.729Z,72.11
2022-10-14T03:15:34.680Z,72.13
2022-10-14T03:16:38.033Z,72.10
2022-10-14T03:17:42.132Z,72.16
2022-10-14T03:18:45.512Z,71.68
2022-10-14T03:19:59.402Z,72.00
2022-10-14T03:21:02.573Z,72.17
2022-10-14T03:22:10.345Z,72.21
2022-10-14T03:23:14.671Z,72.29
2022-10-14T03:24:18.803Z,72.26
2022-10-14T03:25:24.190Z,71.36
2022-10-14T03:26:33.090Z,71.84
2022-10-14T03:27:36.046Z,72.11
2022-10-14T03:28:42.607Z,72.26
2022-10-14T03:30:11.756Z,71.95
2022-10-14T03:31:21.517Z,71.96
2022-10-14T03:32:47.091Z,72.31
2022-10-14T03:34:21.445Z,72.33
2022-10-14T03:35:27.626Z,72.28
2022-10-14T03:36:31.542Z,72.15
2022-10-14T03:37:34.567Z,72.28
2022-10-14T03:38:38.811Z,72.20
2022-10-14T03:39:43.695Z,72.28
2022-10-14T03:40:47.491Z,72.28
2022-10-14T03:41:50.620Z,72.26
2022-10-14T03:42:58.487Z,72.16
2022-10-14T03:44:03.700Z,72.07
2022-10-14T03:45:09.210Z,72.18
2022-10-14T03:46:14.133Z,72.30
2022-10-14T03:47:17.808Z,71.76
2022-10-14T03:48:20.998Z,72.21
2022-10-14T03:49:24.061Z,72.25
2022-10-14T03:50:27.159Z,72.41
2022-10-14T03:51:30.880Z,71.84
2022-10-14T03:52:46.597Z,72.36
2022-10-14T03:53:56.009Z,72.46
2022-10-14T03:55:02.906Z,72.53
2022-10-14T03:56:06.794Z,72.53
2022-10-14T03:57:11.442Z,72.54
2022-10-14T03:58:19.893Z,72.56
2022-10-14T03:59:26.209Z,72.59
2022-10-14T04:00:29.934Z,72.65
2022-10-14T04:01:44.661Z,72.73
2022-10-14T04:02:56.356Z,72.75
2022-10-14T04:04:06.014Z,72.77
2022-10-14T04:05:10.415Z,72.81
2022-10-14T04:06:14.712Z,72.88
2022-10-14T04:07:19.246Z,72.86
2022-10-14T04:08:27.360Z,72.89
2022-10-14T04:09:34.327Z,72.90
2022-10-14T04:10:37.230Z,72.93
2022-10-14T04:11:40.406Z,72.92
2022-10-14T04:12:45.983Z,72.91
2022-10-14T04:13:58.281Z,72.93
2022-10-14T04:15:01.666Z,73.09
2022-10-14T04:16:09.544Z,73.16
2022-10-14T04:17:18.463Z,73.16
2022-10-14T04:18:22.361Z,73.23
2022-10-14T04:19:25.704Z,72.62
2022-10-14T04:20:30.282Z,72.68
2022-10-14T04:21:33.454Z,73.10
2022-10-14T04:22:36.626Z,73.15
2022-10-14T04:23:40.665Z,73.26
2022-10-14T04:24:49.010Z,73.29
2022-10-14T04:25:52.054Z,73.13
2022-10-14T04:26:55.516Z,73.24
2022-10-14T04:28:18.851Z,73.43
2022-10-14T04:29:25.546Z,73.51
2022-10-14T04:30:36.621Z,73.38
2022-10-14T04:31:41.218Z,73.51
2022-10-14T04:32:44.256Z,73.62
2022-10-14T04:33:47.196Z,73.61
2022-10-14T04:34:55.347Z,73.70
2022-10-14T04:36:05.446Z,73.71
2022-10-14T04:37:11.454Z,73.60
2022-10-14T04:38:28.565Z,73.74
2022-10-14T04:39:35.155Z,73.56
2022-10-14T04:40:38.347Z,73.56
2022-10-14T04:41:57.080Z,73.95
2022-10-14T04:43:00.064Z,73.78
2022-10-14T04:44:07.586Z,73.32
2022-10-14T04:45:16.533Z,73.84
2022-10-14T04:46:22.765Z,73.98
2022-10-14T04:47:25.629Z,74.05
2022-10-14T04:48:31.780Z,73.99
2022-10-14T04:49:34.965Z,74.04
2022-10-14T04:50:52.880Z,74.06
2022-10-14T04:52:16.061Z,73.85
2022-10-14T04:53:25.509Z,74.10
2022-10-14T04:54:48.651Z,73.61
2022-10-14T04:55:51.805Z,74.12
2022-10-14T04:56:55.048Z,74.15
2022-10-14T04:57:57.925Z,74.22
2022-10-14T04:59:03.154Z,74.23
2022-10-14T05:00:29.264Z,73.99
2022-10-14T05:01:39.075Z,74.22
2022-10-14T05:02:42.115Z,74.33
2022-10-14T05:03:45.351Z,74.35
2022-10-14T05:04:48.269Z,74.39
2022-10-14T05:05:52.047Z,74.37
2022-10-14T05:06:55.305Z,74.41
2022-10-14T05:07:59.396Z,74.42
2022-10-14T05:09:14.117Z,74.49
2022-10-14T05:10:17.090Z,74.45
2022-10-14T05:11:20.017Z,74.36
2022-10-14T05:12:28.980Z,74.49
2022-10-14T05:13:34.860Z,74.52
2022-10-14T05:14:40.838Z,74.54
2022-10-14T05:15:50.700Z,74.55
2022-10-14T05:16:55.051Z,74.50
2022-10-14T05:18:01.881Z,74.39
2022-10-14T05:19:17.671Z,74.63
2022-10-14T05:20:24.503Z,74.63
2022-10-14T05:21:29.093Z,74.60
2022-10-14T05:22:48.106Z,74.59
2022-10-14T05:23:51.130Z,74.26
2022-10-14T05:24:54.603Z,74.76
2022-10-14T05:25:57.691Z,74.77
2022-10-14T05:27:01.077Z,74.90
2022-10-14T05:28:05.138Z,74.94
2022-10-14T05:29:10.040Z,74.91
2022-10-14T05:30:14.339Z,75.04
2022-10-14T05:31:21.305Z,75.06
2022-10-14T05:32:35.556Z,74.95
2022-10-14T05:33:41.373Z,74.80
2022-10-14T05:34:44.478Z,74.96
2022-10-14T05:36:00.072Z,74.98
2022-10-14T05:37:05.594Z,74.95
2022-10-14T05:38:13.676Z,75.03
2022-10-14T05:39:18.383Z,75.05
2022-10-14T05:40:21.258Z,75.13
2022-10-14T05:41:25.249Z,75.16
2022-10-14T05:42:28.121Z,75.16
2022-10-14T05:43:33.168Z,75.17
2022-10-14T05:44:37.617Z,75.14
2022-10-14T05:45:41.179Z,75.13
2022-10-14T05:46:44.585Z,75.14
2022-10-14T05:47:47.521Z,74.94
2022-10-14T05:48:53.270Z,75.05
2022-10-14T05:49:56.248Z,75.09
2022-10-14T05:51:02.488Z,75.09
2022-10-14T05:52:06.848Z,74.97
2022-10-14T05:53:10.465Z,75.08
2022-10-14T05:54:17.411Z,74.73
2022-10-14T05:55:20.427Z,75.01
2022-10-14T05:56:23.754Z,75.02
2022-10-14T05:57:28.340Z,74.94
2022-10-14T05:58:31.514Z,75.00
2022-10-14T05:59:35.527Z,75.13
2022-10-14T06:00:38.570Z,75.15
2022-10-14T06:01:44.326Z,75.21
2022-10-14T06:02:47.379Z,75.09
2022-10-14T06:03:52.859Z,75.12
2022-10-14T06:04:55.827Z,75.21
2022-10-14T06:05:59.943Z,75.19
2022-10-14T06:07:03.409Z,75.17
2022-10-14T06:08:06.600Z,75.19
2022-10-14T06:09:12.115Z,75.21
2022-10-14T06:10:15.774Z,75.15
2022-10-14T06:11:19.228Z,75.09
2022-10-14T06:12:22.495Z,75.10
2022-10-14T06:13:26.426Z,75.18
2022-10-14T06:14:29.941Z,75.21
2022-10-14T06:15:34.522Z,75.11
2022-10-14T06:16:37.612Z,75.12
2022-10-14T06:17:42.318Z,75.14
2022-10-14T06:18:45.809Z,75.18
2022-10-14T06:19:48.683Z,75.17
2022-10-14T06:20:52.775Z,75.12
2022-10-14T06:21:55.790Z,75.10
2022-10-14T06:22:59.748Z,75.07
2022-10-14T06:24:02.866Z,75.03
2022-10-14T06:25:05.945Z,74.82
2022-10-14T06:26:09.861Z,74.82
2022-10-14T06:27:13.479Z,74.79
2022-10-14T06:28:16.548Z,74.80
2022-10-14T06:29:19.820Z,74.78
2022-10-14T06:30:22.715Z,74.72
2022-10-14T06:31:29.856Z,74.62
2022-10-14T06:32:35.390Z,74.62
2022-10-14T06:33:38.290Z,74.55
2022-10-14T06:34:41.459Z,74.53
2022-10-14T06:35:44.261Z,74.55
2022-10-14T06:36:47.211Z,74.55
2022-10-14T06:37:50.121Z,74.55
2022-10-14T06:38:53.194Z,74.56
2022-10-14T06:39:56.331Z,74.55
2022-10-14T06:40:59.233Z,74.50
2022-10-14T06:42:03.687Z,74.56
2022-10-14T06:43:06.577Z,74.59
2022-10-14T06:44:09.673Z,74.53
2022-10-14T06:45:12.778Z,74.26
2022-10-14T06:46:16.062Z,74.30
2022-10-14T06:47:18.967Z,74.23
2022-10-14T06:48:21.782Z,74.13
2022-10-14T06:49:24.624Z,73.92
2022-10-14T06:50:27.745Z,73.33
2022-10-14T06:51:30.574Z,73.03
2022-10-14T06:52:33.409Z,72.97
2022-10-14T06:53:36.489Z,72.63
2022-10-14T06:54:40.412Z,72.63
2022-10-14T06:55:44.855Z,72.81
2022-10-14T06:56:47.745Z,72.71
2022-10-14T06:57:50.687Z,72.44
2022-10-14T06:58:55.070Z,72.01
2022-10-14T06:59:58.186Z,72.03
2022-10-14T07:01:04.386Z,71.83
2022-10-14T07:02:07.333Z,71.66
2022-10-14T07:03:10.315Z,71.62
2022-10-14T07:04:13.322Z,71.28
2022-10-14T07:05:16.845Z,71.20
2022-10-14T07:06:20.254Z,71.17
2022-10-14T07:07:23.017Z,71.24
2022-10-14T07:08:26.113Z,71.07
2022-10-14T07:09:29.286Z,70.99
2022-10-14T07:10:32.194Z,71.07
2022-10-14T07:11:35.558Z,71.01
2022-10-14T07:12:38.624Z,70.83
2022-10-14T07:13:41.405Z,70.73
2022-10-14T07:14:44.677Z,70.60
2022-10-14T07:15:48.250Z,70.63
2022-10-14T07:16:54.362Z,70.67
2022-10-14T07:17:57.311Z,70.57
2022-10-14T07:19:00.288Z,70.61
2022-10-14T07:20:03.384Z,70.52
2022-10-14T07:21:06.905Z,70.45
2022-10-14T07:22:10.467Z,70.26
2022-10-14T07:23:13.542Z,70.04
2022-10-14T07:24:16.736Z,70.07
2022-10-14T07:25:20.224Z,70.13
2022-10-14T07:26:23.918Z,70.19
2022-10-14T07:27:27.241Z,70.21
2022-10-14T07:28:30.263Z,70.10
2022-10-14T07:29:33.191Z,70.01
2022-10-14T07:30:36.332Z,69.70
2022-10-14T07:31:39.216Z,69.48
2022-10-14T07:32:42.345Z,69.38
2022-10-14T07:33:46.413Z,69.51
2022-10-14T07:34:49.352Z,69.59
2022-10-14T07:35:52.424Z,69.21
2022-10-14T07:36:55.307Z,69.13
2022-10-14T07:37:58.495Z,69.13
2022-10-14T07:39:01.531Z,68.99
2022-10-14T07:40:04.607Z,68.78
2022-10-14T07:41:16.515Z,68.90
2022-10-14T07:43:28.843Z,69.22
2022-10-14T07:44:31.811Z,69.02
2022-10-14T07:45:36.372Z,69.04
2022-10-14T07:46:40.910Z,69.12
2022-10-14T07:47:44.712Z,68.90
2022-10-14T07:48:56.737Z,68.91
2022-10-14T07:50:02.051Z,68.83
2022-10-14T07:51:14.517Z,68.60
2022-10-14T07:52:19.687Z,68.50
2022-10-14T07:53:23.328Z,68.34
2022-10-14T07:54:29.365Z,68.33
2022-10-14T07:55:34.281Z,68.42
2022-10-14T07:56:38.879Z,68.51
2022-10-14T07:57:42.185Z,68.53
2022-10-14T07:58:46.377Z,68.17
2022-10-14T07:59:49.523Z,67.93
2022-10-14T08:00:53.338Z,67.71
2022-10-14T08:01:56.790Z,67.93
2022-10-14T08:02:59.922Z,67.84
2022-10-14T08:04:03.693Z,67.68
2022-10-14T08:06:29.871Z,67.64
2022-10-14T08:07:33.425Z,67.72
2022-10-14T08:08:36.378Z,67.80
2022-10-14T08:09:41.732Z,67.76
2022-10-14T08:10:44.706Z,66.92
2022-10-14T08:11:47.876Z,65.99
2022-10-14T08:12:51.265Z,65.06
2022-10-14T08:13:54.838Z,65.54
2022-10-14T08:15:00.474Z,65.96
2022-10-14T08:16:11.661Z,64.73
2022-10-14T08:17:14.865Z,64.98
2022-10-14T08:18:20.041Z,64.76
2022-10-14T08:19:23.239Z,64.90
2022-10-14T08:20:26.148Z,64.83
2022-10-14T08:21:29.334Z,65.39
2022-10-14T08:22:32.278Z,64.79
2022-10-14T08:23:35.520Z,64.09
2022-10-14T08:24:38.595Z,64.26
2022-10-14T08:25:41.517Z,63.95
2022-10-14T08:26:54.727Z,63.98
2022-10-14T08:27:58.755Z,63.96
2022-10-14T08:29:03.668Z,64.51
2022-10-14T08:30:10.239Z,65.09
2022-10-14T08:31:14.183Z,65.51
2022-10-14T08:32:17.448Z,65.44
2022-10-14T08:33:20.383Z,64.59
2022-10-14T08:34:24.585Z,64.44
2022-10-14T08:35:27.919Z,64.39
2022-10-14T08:36:30.915Z,64.09
2022-10-14T08:37:34.080Z,63.50
2022-10-14T08:38:37.115Z,63.24
2022-10-14T08:39:39.970Z,62.76
2022-10-14T08:40:55.778Z,63.15
2022-10-14T08:42:35.191Z,63.33
2022-10-14T08:43:57.005Z,64.64
2022-10-14T08:45:08.853Z,63.24
2022-10-14T08:46:26.925Z,63.74
2022-10-14T08:47:37.321Z,63.64
2022-10-14T08:48:40.612Z,62.09
2022-10-14T08:49:46.655Z,61.89
2022-10-14T08:51:13.458Z,62.03
2022-10-14T08:52:22.965Z,61.56
2022-10-14T08:53:28.971Z,61.26
2022-10-14T08:54:37.770Z,61.30
2022-10-14T08:55:45.050Z,61.71
2022-10-14T08:56:47.889Z,61.82
2022-10-14T08:57:54.293Z,61.69
2022-10-14T08:59:01.244Z,61.42
2022-10-14T09:00:14.133Z,61.15
2022-10-14T09:01:33.416Z,61.23
2022-10-14T09:02:39.031Z,61.01
2022-10-14T09:03:42.207Z,61.06
2022-10-14T09:04:45.369Z,60.92
2022-10-14T09:05:56.582Z,60.80
2022-10-14T09:07:00.226Z,60.89
2022-10-14T09:08:03.130Z,61.29
2022-10-14T09:09:08.075Z,61.25
2022-10-14T09:10:18.548Z,61.28
2022-10-14T09:11:23.000Z,61.25
2022-10-14T09:12:28.288Z,61.44
2022-10-14T09:13:53.138Z,60.75
2022-10-14T09:14:59.812Z,60.37
2022-10-14T09:16:15.820Z,60.19
2022-10-14T09:17:33.974Z,61.13
2022-10-14T09:18:59.668Z,61.38
2022-10-14T09:20:17.403Z,62.08
2022-10-14T09:21:34.221Z,61.21
2022-10-14T09:22:58.848Z,61.18
2022-10-14T09:24:16.690Z,60.83
2022-10-14T09:25:19.562Z,60.94
2022-10-14T09:26:23.987Z,60.89
2022-10-14T09:27:28.559Z,60.93
2022-10-14T09:28:36.381Z,60.97
2022-10-14T09:29:56.816Z,60.96
2022-10-14T09:30:59.683Z,60.83
2022-10-14T09:32:05.321Z,61.30
2022-10-14T09:33:13.008Z,61.53
2022-10-14T09:34:20.752Z,61.36
2022-10-14T09:35:26.202Z,61.29
2022-10-14T09:36:29.579Z,61.28
2022-10-14T09:37:34.084Z,61.34
2022-10-14T09:38:37.268Z,61.08
2022-10-14T09:39:41.054Z,60.37
2022-10-14T09:40:45.268Z,60.45
2022-10-14T09:41:51.461Z,60.83
2022-10-14T09:43:09.758Z,60.20
2022-10-14T09:44:23.267Z,60.18
2022-10-14T09:45:28.055Z,60.01
2022-10-14T09:46:31.073Z,60.36
2022-10-14T09:47:36.194Z,60.11
2022-10-14T09:48:48.596Z,58.26
2022-10-14T09:49:52.085Z,58.08
2022-10-14T09:51:00.108Z,57.59
2022-10-14T09:52:03.416Z,57.62
2022-10-14T09:53:15.468Z,58.36
2022-10-14T09:54:23.495Z,57.88
2022-10-14T09:55:28.556Z,57.86
2022-10-14T09:56:40.653Z,58.76
2022-10-14T09:57:56.851Z,58.90
2022-10-14T09:58:59.825Z,58.78
2022-10-14T10:00:04.342Z,58.85
2022-10-14T10:01:14.527Z,58.95
2022-10-14T10:02:25.847Z,59.63
2022-10-14T10:03:32.547Z,59.45
2022-10-14T10:04:47.125Z,59.78
2022-10-14T10:05:58.745Z,60.01
2022-10-14T10:07:06.399Z,60.41
2022-10-14T10:08:13.677Z,59.77
2022-10-14T10:09:20.276Z,59.71
2022-10-14T10:10:23.346Z,60.04
2022-10-14T10:11:30.827Z,60.09
2022-10-14T10:12:35.097Z,59.61
2022-10-14T10:13:46.473Z,60.16
2022-10-14T10:14:55.877Z,63.06
2022-10-14T10:15:59.746Z,64.24
2022-10-14T10:17:06.023Z,63.78
2022-10-14T10:18:18.688Z,64.32
2022-10-14T10:19:29.865Z,63.41
2022-10-14T10:20:33.635Z,61.37
2022-10-14T10:21:39.416Z,61.99
2022-10-14T10:22:43.079Z,60.32
2022-10-14T10:23:54.396Z,59.67
2022-10-14T10:25:00.736Z,59.69
2022-10-14T10:26:25.821Z,60.70
2022-10-14T10:27:36.686Z,59.69
2022-10-14T10:28:45.316Z,59.43
2022-10-14T10:29:48.414Z,60.29
2022-10-14T10:31:12.612Z,58.45
2022-10-14T10:32:42.658Z,59.79
2022-10-14T10:33:50.659Z,58.60
2022-10-14T10:34:56.752Z,57.05
2022-10-14T10:36:09.228Z,56.26
2022-10-14T10:37:14.873Z,57.08
2022-10-14T10:38:17.999Z,56.63
2022-10-14T10:39:38.932Z,56.23
2022-10-14T10:40:51.287Z,56.26
2022-10-14T10:42:13.043Z,55.65
2022-10-14T10:43:36.665Z,55.69
2022-10-14T10:45:02.680Z,55.44
2022-10-14T10:46:23.520Z,55.98
2022-10-14T10:47:41.764Z,55.99
2022-10-14T10:48:54.444Z,55.65
2022-10-14T10:50:16.180Z,58.39
2022-10-14T10:51:23.602Z,57.55
2022-10-14T10:52:41.770Z,56.89
2022-10-14T10:53:55.566Z,56.59
2022-10-14T10:55:03.972Z,56.34
2022-10-14T10:56:16.051Z,56.34
2022-10-14T10:57:52.809Z,56.23
2022-10-14T10:59:03.224Z,56.40
2022-10-14T11:00:09.061Z,56.56
2022-10-14T11:01:31.667Z,56.61
2022-10-14T11:02:46.020Z,57.77
2022-10-14T11:04:16.232Z,57.46
2022-10-14T11:05:23.462Z,57.52
2022-10-14T11:06:53.648Z,57.50
2022-10-14T11:08:16.152Z,57.69
2022-10-14T11:09:44.625Z,58.15
2022-10-14T11:11:09.339Z,57.75
2022-10-14T11:12:23.203Z,58.31
2022-10-14T11:13:29.373Z,57.95
2022-10-14T11:14:53.839Z,57.76
2022-10-14T11:16:07.629Z,57.86
2022-10-14T11:17:18.154Z,57.79
2022-10-14T11:18:27.745Z,57.98
2022-10-14T11:19:49.437Z,57.89
2022-10-14T11:20:54.728Z,58.25
2022-10-14T11:22:01.471Z,57.16
2022-10-14T11:23:10.476Z,55.73
2022-10-14T11:24:19.877Z,55.55
2022-10-14T11:25:41.475Z,55.56
2022-10-14T11:26:57.743Z,55.75
2022-10-14T11:28:01.143Z,55.69
2022-10-14T11:29:25.628Z,55.25
2022-10-14T11:30:58.085Z,54.61
2022-10-14T11:32:04.266Z,52.69
2022-10-14T11:33:21.735Z,53.03
2022-10-14T11:34:33.481Z,53.41
2022-10-14T11:35:44.651Z,52.70
2022-10-14T11:37:08.375Z,55.12
2022-10-14T11:38:15.940Z,55.01
2022-10-14T11:39:29.673Z,52.39
2022-10-14T11:40:39.077Z,53.60
2022-10-14T11:41:42.126Z,53.18
2022-10-14T11:43:07.938Z,52.70
2022-10-14T11:44:13.862Z,55.57
2022-10-14T11:45:20.269Z,54.39
2022-10-14T11:46:35.992Z,56.01
2022-10-14T11:47:39.572Z,54.01
2022-10-14T11:48:43.163Z,53.56
2022-10-14T11:50:00.760Z,53.54
2022-10-14T11:51:07.038Z,52.92
2022-10-14T11:52:35.930Z,52.96
2022-10-14T11:53:47.188Z,53.49
2022-10-14T11:55:19.524Z,52.95
2022-10-14T11:56:40.449Z,52.88
2022-10-14T11:57:56.719Z,53.10
2022-10-14T11:59:02.094Z,53.27
2022-10-14T12:00:24.785Z,53.02
2022-10-14T12:01:48.564Z,52.40
2022-10-14T12:02:54.260Z,52.36
2022-10-14T12:04:12.063Z,53.98
2022-10-14T12:05:31.390Z,55.25
2022-10-14T12:06:37.935Z,57.19
2022-10-14T12:07:48.407Z,56.58
2022-10-14T12:08:55.320Z,56.58
2022-10-14T12:10:01.255Z,57.51
2022-10-14T12:11:10.087Z,56.53
2022-10-14T12:12:14.292Z,55.50
2022-10-14T12:13:19.048Z,57.14
2022-10-14T12:14:36.706Z,56.82
2022-10-14T12:15:40.635Z,56.88
2022-10-14T12:16:46.231Z,56.64
2022-10-14T12:17:57.873Z,58.47
2022-10-14T12:19:00.995Z,58.20
2022-10-14T12:20:15.416Z,58.05
2022-10-14T12:21:30.165Z,57.93
2022-10-14T12:22:33.597Z,56.93
2022-10-14T12:23:43.485Z,56.98
2022-10-14T12:24:48.811Z,57.23
2022-10-14T12:26:19.002Z,58.03
2022-10-14T12:27:23.988Z,56.35
2022-10-14T12:28:27.424Z,55.93
2022-10-14T12:29:50.627Z,56.08
2022-10-14T12:31:13.429Z,55.56
2022-10-14T12:32:16.337Z,58.35
2022-10-14T12:33:22.854Z,58.50
2022-10-14T12:34:42.040Z,58.34
2022-10-14T12:35:45.071Z,59.46
2022-10-14T12:36:50.106Z,58.30
2022-10-14T12:37:54.353Z,59.11
2022-10-14T12:39:16.710Z,58.16
2022-10-14T12:40:26.100Z,57.06
2022-10-14T12:41:39.941Z,57.75
2022-10-14T12:42:57.868Z,57.47
2022-10-14T12:44:10.297Z,59.43
2022-10-14T12:45:21.181Z,58.97
2022-10-14T12:46:24.300Z,58.92
2022-10-14T12:47:40.735Z,57.23
2022-10-14T12:48:48.285Z,55.65
2022-10-14T12:49:53.278Z,54.96
2022-10-14T12:51:06.251Z,54.68
2022-10-14T12:52:09.389Z,54.45
2022-10-14T12:53:23.860Z,56.22
2022-10-14T12:54:27.828Z,57.04
2022-10-14T12:55:46.878Z,55.84
2022-10-14T12:56:55.636Z,55.08
2022-10-14T12:57:59.098Z,54.71
2022-10-14T12:59:03.809Z,55.71
2022-10-14T13:00:27.059Z,55.16
2022-10-14T13:01:35.305Z,54.18
2022-10-14T13:02:46.942Z,54.56
2022-10-14T13:03:55.097Z,54.89
2022-10-14T13:04:59.124Z,55.07
2022-10-14T13:06:22.621Z,55.68
2022-10-14T13:07:39.654Z,55.69
2022-10-14T13:09:04.054Z,55.84
2022-10-14T13:10:26.822Z,56.15
2022-10-14T13:11:29.832Z,56.29
2022-10-14T13:12:38.623Z,55.67
2022-10-14T13:13:50.820Z,56.03
2022-10-14T13:14:58.326Z,55.77
2022-10-14T13:16:01.461Z,55.61
2022-10-14T13:17:24.573Z,55.37
2022-10-14T13:18:35.101Z,55.49
2022-10-14T13:19:39.729Z,55.19
2022-10-14T13:20:45.340Z,54.94
2022-10-14T13:21:48.565Z,54.75
2022-10-14T13:22:52.262Z,54.84
2022-10-14T13:23:55.843Z,54.97
2022-10-14T13:25:13.212Z,55.07
2022-10-14T13:26:34.479Z,55.24
2022-10-14T13:27:49.238Z,55.16
2022-10-14T13:29:10.666Z,55.66
2022-10-14T13:30:19.788Z,57.23
2022-10-14T13:31:41.421Z,56.30
2022-10-14T13:32:47.321Z,54.74
2022-10-14T13:33:59.176Z,55.01
2022-10-14T13:35:20.956Z,57.46
2022-10-14T13:36:44.205Z,57.05
2022-10-14T13:37:56.204Z,57.07
2022-10-14T13:39:00.679Z,56.82
2022-10-14T13:41:30.870Z,55.09
2022-10-14T13:42:36.495Z,56.52
2022-10-14T13:43:42.370Z,56.13
2022-10-14T13:45:56.280Z,51.47
2022-10-14T13:47:00.220Z,51.07
2022-10-14T13:48:03.213Z,51.65
2022-10-14T13:49:08.565Z,51.12
2022-10-14T13:50:12.807Z,49.59
2022-10-14T13:51:36.181Z,49.21
2022-10-14T13:52:39.574Z,52.81
2022-10-14T13:53:54.802Z,49.33
2022-10-14T13:55:14.812Z,49.26
2022-10-14T13:56:22.766Z,50.36
2022-10-14T13:57:53.569Z,45.42
2022-10-14T13:58:49.074Z,44.94
2022-10-14T14:01:17.391Z,45.35
2022-10-14T14:02:30.007Z,45.69
2022-10-14T14:03:37.031Z,46.73
2022-10-14T14:04:40.578Z,46.33
2022-10-14T14:05:43.548Z,48.94
2022-10-14T14:07:03.034Z,51.97
2022-10-14T14:08:37.206Z,50.57
2022-10-14T14:09:30.663Z,49.53
2022-10-14T14:10:42.486Z,53.45
2022-10-14T14:11:51.524Z,52.48
2022-10-14T14:12:56.299Z,51.12
2022-10-14T14:14:02.840Z,49.88
2022-10-14T14:15:05.978Z,49.95
2022-10-14T14:16:17.496Z,49.69
2022-10-14T14:17:22.742Z,49.06
2022-10-14T14:18:33.921Z,48.68
2022-10-14T14:19:46.771Z,49.80
2022-10-14T14:20:57.980Z,49.61
2022-10-14T14:22:08.496Z,50.52
2022-10-14T14:23:12.949Z,50.05
2022-10-14T14:24:24.049Z,51.35
2022-10-14T14:25:40.444Z,51.01
2022-10-14T14:26:47.432Z,51.12
2022-10-14T14:27:55.332Z,51.42
2022-10-14T14:28:58.495Z,51.62
2022-10-14T14:30:02.343Z,52.01
2022-10-14T14:31:05.276Z,52.40
2022-10-14T14:32:13.727Z,52.49
2022-10-14T14:33:19.782Z,52.74
2022-10-14T14:34:23.664Z,53.10
2022-10-14T14:35:26.984Z,53.43
2022-10-14T14:36:50.079Z,53.68
2022-10-14T14:37:56.067Z,54.10
2022-10-14T14:39:01.518Z,54.10
2022-10-14T14:40:06.136Z,54.58
2022-10-14T14:41:12.321Z,54.84
2022-10-14T14:42:23.440Z,54.98